Time;durP1;ratioP1;P1;durP2;ratioP2;P2;SDS_P1;SDS_P2;PMS_P1;PMS_P2;Temp;Humidity;BMP_temperature;BMP_pressure;BME280_temperature;BME280_humidity;BME280_pressure;Samples;Min_cycle;Max_cycle;Signal;HPM_P1;HPM_P2
2021/09/23 00:00:49;;;;;;;3.90;1.60;;;;;;;19.09;47.29;101368.66;144992;813;6002;-78
2021/09/23 00:03:33;;;;;;;3.45;2.03;;;;;;;18.94;47.02;101393.09;144992;628;6002;-78
2021/09/23 00:06:00;;;;;;;3.80;2.00;;;;;;;18.93;46.68;101379.94;144992;569;6002;-79
2021/09/23 00:08:27;;;;;;;5.20;2.00;;;;;;;18.99;46.01;101385.22;144992;672;6002;-79
2021/09/23 00:10:53;;;;;;;4.32;1.87;;;;;;;19.11;46.51;101395.84;144992;629;6002;-78
2021/09/23 00:13:20;;;;;;;4.53;2.00;;;;;;;19.18;45.69;101386.22;144992;578;6002;-79
2021/09/23 00:15:46;;;;;;;3.17;1.98;;;;;;;19.21;45.51;101378.34;144992;660;6002;-78
2021/09/23 00:18:15;;;;;;;2.70;1.80;;;;;;;19.26;46.32;101394.16;144992;584;6002;-80
2021/09/23 00:20:46;;;;;;;1.83;1.52;;;;;;;19.20;46.46;101384.47;144992;653;6002;-81
2021/09/23 00:23:13;;;;;;;1.95;1.75;;;;;;;19.16;46.00;101365.16;144992;653;6002;-79
2021/09/23 00:25:39;;;;;;;2.87;2.03;;;;;;;19.02;45.80;101365.06;144992;632;6002;-80
2021/09/23 00:28:07;;;;;;;3.25;2.05;;;;;;;19.04;45.47;101367.72;144992;646;6002;-80
2021/09/23 00:30:35;;;;;;;3.87;1.90;;;;;;;19.00;45.43;101366.81;144992;641;6002;-81
2021/09/23 00:33:02;;;;;;;2.95;2.20;;;;;;;18.98;46.13;101371.22;144991;575;6002;-79
2021/09/23 00:35:28;;;;;;;6.03;2.45;;;;;;;18.87;46.58;101366.75;144992;582;6002;-79
2021/09/23 00:37:55;;;;;;;4.30;2.50;;;;;;;18.88;46.39;101369.37;144992;671;6002;-81
2021/09/23 00:40:21;;;;;;;3.90;2.75;;;;;;;18.97;46.99;101382.59;144992;620;6002;-80
2021/09/23 00:42:49;;;;;;;3.78;2.10;;;;;;;19.00;45.97;101382.63;144992;626;6002;-78
2021/09/23 00:45:17;;;;;;;4.93;2.37;;;;;;;19.00;46.36;101392.28;144992;606;6002;-78
2021/09/23 00:47:44;;;;;;;5.75;2.25;;;;;;;18.85;45.92;101380.78;144992;566;6002;-79
2021/09/23 00:50:12;;;;;;;5.87;2.40;;;;;;;18.89;45.53;101389.56;144992;581;6002;-79
2021/09/23 00:52:39;;;;;;;6.10;2.15;;;;;;;18.89;45.23;101397.47;144992;598;6002;-79
2021/09/23 00:55:07;;;;;;;4.07;2.08;;;;;;;18.82;45.18;101386.00;144992;573;6002;-80
2021/09/23 00:57:35;;;;;;;9.77;2.55;;;;;;;18.85;45.27;101401.81;144992;602;6002;-80
2021/09/23 01:00:01;;;;;;;6.47;2.40;;;;;;;18.77;45.31;101392.06;144992;609;6002;-80
2021/09/23 01:02:28;;;;;;;5.15;2.00;;;;;;;18.77;45.64;101392.06;144992;564;6002;-80
2021/09/23 01:04:54;;;;;;;3.47;2.20;;;;;;;18.73;45.77;101383.28;144992;607;6002;-80
2021/09/23 01:07:22;;;;;;;4.15;2.25;;;;;;;18.65;45.75;101395.53;144992;634;6002;-79
2021/09/23 01:09:53;;;;;;;4.00;2.30;;;;;;;18.55;45.70;101404.19;144992;637;6003;-79
2021/09/23 01:12:22;;;;;;;8.52;2.30;;;;;;;18.60;45.42;101392.84;144992;589;6002;-83
2021/09/23 01:14:49;;;;;;;3.40;1.70;;;;;;;18.56;45.88;101391.06;144992;565;6002;-77
2021/09/23 01:17:16;;;;;;;3.37;1.75;;;;;;;18.42;44.85;101398.84;144992;593;6003;-80
2021/09/23 01:19:44;;;;;;;2.62;2.03;;;;;;;18.51;44.73;101407.69;144992;659;6002;-81
2021/09/23 01:22:12;;;;;;;2.83;2.28;;;;;;;18.52;44.29;101420.84;144992;566;6002;-80
2021/09/23 01:24:40;;;;;;;4.87;1.95;;;;;;;18.50;43.79;101398.94;144992;662;6002;-80
2021/09/23 01:27:08;;;;;;;7.95;2.22;;;;;;;18.41;43.78;101404.97;144992;571;6002;-79
2021/09/23 01:29:36;;;;;;;2.33;1.70;;;;;;;18.50;43.61;101409.44;144992;573;6002;-80
2021/09/23 01:32:04;;;;;;;2.17;1.62;;;;;;;18.52;42.92;101406.78;144992;616;6002;-79
2021/09/23 01:34:31;;;;;;;2.12;1.60;;;;;;;18.50;42.90;101406.81;144992;597;6002;-80
2021/09/23 01:36:58;;;;;;;3.97;1.90;;;;;;;18.36;42.88;101429.44;144992;599;6002;-80
2021/09/23 01:39:26;;;;;;;3.67;1.80;;;;;;;18.26;43.25;101417.97;144992;593;6002;-79
2021/09/23 01:41:54;;;;;;;2.20;1.50;;;;;;;18.31;43.82;101421.53;144992;641;6002;-79
2021/09/23 01:44:21;;;;;;;3.83;1.73;;;;;;;18.41;43.11;101422.50;144992;567;6002;-78
2021/09/23 01:46:47;;;;;;;2.10;1.70;;;;;;;18.29;42.76;101421.53;144992;605;6002;-81
2021/09/23 01:49:14;;;;;;;2.42;1.55;;;;;;;18.30;42.62;101431.16;144992;618;6002;-79
2021/09/23 01:51:41;;;;;;;3.28;1.92;;;;;;;18.36;43.25;101440.84;144992;602;6002;-79
2021/09/23 01:54:07;;;;;;;2.45;1.70;;;;;;;18.40;43.04;101441.75;144992;607;6002;-76
2021/09/23 01:56:34;;;;;;;2.05;1.80;;;;;;;18.27;43.60;101432.88;144992;725;6002;-81
2021/09/23 01:59:01;;;;;;;2.15;1.60;;;;;;;18.29;43.64;101431.13;144992;588;6002;-80
2021/09/23 02:01:28;;;;;;;1.87;1.65;;;;;;;18.29;43.63;101433.75;144992;564;6002;-79
2021/09/23 02:03:54;;;;;;;2.05;1.83;;;;;;;18.32;44.07;101433.78;144992;612;6002;-80
2021/09/23 02:06:21;;;;;;;4.32;1.80;;;;;;;18.29;43.94;101429.41;144992;563;6002;-80
2021/09/23 02:08:47;;;;;;;1.90;1.70;;;;;;;18.28;43.77;101432.03;144992;683;6002;-80
2021/09/23 02:11:14;;;;;;;3.72;1.60;;;;;;;18.36;44.31;101442.59;144992;606;6002;-79
2021/09/23 02:13:41;;;;;;;2.85;1.95;;;;;;;18.41;44.21;101440.91;144992;614;6002;-79
2021/09/23 02:16:07;;;;;;;2.05;1.70;;;;;;;18.41;44.37;101448.78;144992;591;6002;-80
2021/09/23 02:18:34;;;;;;;3.45;1.73;;;;;;;18.40;44.55;101458.41;144992;608;6002;-80
2021/09/23 02:21:00;;;;;;;2.25;1.80;;;;;;;18.45;44.26;101450.56;144992;563;6002;-80
2021/09/23 02:23:27;;;;;;;3.05;1.80;;;;;;;18.39;44.68;101446.13;144992;621;6002;-80
2021/09/23 02:25:53;;;;;;;2.95;1.95;;;;;;;18.41;44.45;101444.41;144992;597;6002;-80
2021/09/23 02:28:20;;;;;;;5.00;2.12;;;;;;;18.49;44.35;101436.59;144992;646;6002;-80
2021/09/23 02:30:46;;;;;;;3.00;2.10;;;;;;;18.45;44.43;101429.53;144992;596;6002;-81
2021/09/23 02:33:13;;;;;;;4.75;1.90;;;;;;;18.42;44.65;101427.78;144992;606;6002;-80
2021/09/23 02:35:39;;;;;;;2.58;1.90;;;;;;;18.49;44.71;101431.31;144992;595;6002;-81
2021/09/23 02:38:06;;;;;;;2.35;1.80;;;;;;;18.65;45.32;101429.69;144992;623;6002;-80
2021/09/23 02:40:32;;;;;;;3.28;1.70;;;;;;;18.59;44.26;101440.16;144992;569;6002;-78
2021/09/23 02:43:01;;;;;;;5.22;1.85;;;;;;;18.58;43.42;101426.16;144992;584;6002;-78
2021/09/23 02:45:27;;;;;;;5.62;1.80;;;;;;;18.53;43.39;101433.09;144992;564;6002;-80
2021/09/23 02:47:54;;;;;;;2.72;1.80;;;;;;;18.54;43.52;101429.59;144992;600;6002;-80
2021/09/23 02:50:20;;;;;;;3.15;2.00;;;;;;;18.62;43.34;101438.44;144992;624;6002;-79
2021/09/23 02:52:47;;;;;;;3.83;1.90;;;;;;;18.49;43.73;101447.09;144992;569;6002;-77
2021/09/23 02:55:13;;;;;;;2.25;1.60;;;;;;;18.59;44.95;101446.28;144992;652;6002;-79
2021/09/23 02:57:39;;;;;;;3.45;1.85;;;;;;;18.55;44.43;101434.00;144992;563;6002;-81
2021/09/23 03:00:08;;;;;;;1.90;1.70;;;;;;;18.42;43.35;101446.16;144992;565;6002;-79
2021/09/23 03:02:35;;;;;;;4.37;2.10;;;;;;;18.44;44.99;101460.19;144992;617;6011;-81
2021/09/23 03:05:02;;;;;;;2.30;1.95;;;;;;;18.60;43.95;101453.31;144992;570;6002;-79
2021/09/23 03:07:29;;;;;;;4.75;1.90;;;;;;;18.59;43.81;101458.56;144991;592;6002;-80
2021/09/23 03:09:56;;;;;;;2.30;1.60;;;;;;;18.71;43.47;101466.56;144992;649;6002;-80
2021/09/23 03:12:23;;;;;;;2.75;1.67;;;;;;;18.78;44.74;101468.38;144992;606;6002;-79
2021/09/23 03:14:50;;;;;;;3.12;1.77;;;;;;;18.77;43.53;101463.09;144992;614;6002;-80
2021/09/23 03:17:17;;;;;;;2.83;2.00;;;;;;;19.04;44.99;101465.06;144992;605;6002;-81
2021/09/23 03:19:43;;;;;;;3.00;1.62;;;;;;;19.13;42.97;101438.81;144992;564;6002;-80
2021/09/23 03:22:10;;;;;;;2.30;1.77;;;;;;;18.97;42.91;101456.25;144992;607;6002;-79
2021/09/23 03:24:36;;;;;;;2.22;1.70;;;;;;;19.07;44.62;101457.19;144992;578;6002;-80
2021/09/23 03:27:03;;;;;;;1.70;1.60;;;;;;;18.98;41.92;101459.78;144992;574;6002;-78
2021/09/23 03:29:30;;;;;;;2.50;1.87;;;;;;;18.97;43.61;101461.53;144992;588;6002;-79
2021/09/23 03:31:56;;;;;;;1.85;1.67;;;;;;;18.77;41.13;101458.72;144992;577;6002;-79
2021/09/23 03:34:22;;;;;;;2.00;1.80;;;;;;;18.80;44.00;101463.13;144992;612;6002;-78
2021/09/23 03:36:49;;;;;;;2.37;1.70;;;;;;;18.99;44.33;101458.91;144992;618;6002;-79
2021/09/23 03:39:15;;;;;;;1.85;1.55;;;;;;;18.95;43.51;101451.88;144992;606;6002;-79
2021/09/23 03:41:42;;;;;;;5.97;1.92;;;;;;;19.12;43.44;101457.22;144992;622;6002;-80
2021/09/23 03:44:08;;;;;;;2.45;1.65;;;;;;;19.06;42.32;101460.72;144992;566;6002;-82
2021/09/23 03:46:34;;;;;;;2.47;1.80;;;;;;;19.00;43.32;101476.47;144992;654;6002;-78
2021/09/23 03:49:01;;;;;;;2.58;1.65;;;;;;;18.76;40.59;101461.34;144992;569;6002;-81
2021/09/23 03:51:27;;;;;;;3.35;1.55;;;;;;;18.61;42.60;101475.22;144993;602;6002;-81
2021/09/23 03:53:54;;;;;;;2.42;1.73;;;;;;;18.50;41.59;101459.38;144993;628;6002;-81
2021/09/23 03:56:22;;;;;;;4.25;1.50;;;;;;;18.47;42.30;101465.50;144993;614;6002;-80
2021/09/23 03:58:48;;;;;;;2.60;2.17;;;;;;;18.35;42.11;101470.63;144993;609;6002;-80
2021/09/23 04:01:15;;;;;;;2.20;1.67;;;;;;;18.44;43.10;101475.09;144993;618;6002;-81
2021/09/23 04:03:41;;;;;;;4.60;1.98;;;;;;;18.68;43.47;101475.31;144992;576;6002;-80
2021/09/23 04:06:08;;;;;;;2.40;1.50;;;;;;;18.62;42.84;101475.25;144993;592;6002;-80
2021/09/23 04:08:34;;;;;;;3.15;1.75;;;;;;;18.62;42.45;101475.25;144993;610;6002;-80
2021/09/23 04:11:01;;;;;;;2.53;1.77;;;;;;;18.60;42.56;101487.50;144993;619;6002;-79
2021/09/23 04:13:27;;;;;;;3.22;1.70;;;;;;;18.63;43.18;101484.03;144993;571;6002;-80
2021/09/23 04:15:54;;;;;;;3.47;2.10;;;;;;;18.72;44.27;101507.75;144993;666;6003;-79
2021/09/23 04:18:20;;;;;;;2.08;1.65;;;;;;;18.61;42.88;101491.91;144993;563;6002;-79
2021/09/23 04:20:48;;;;;;;2.90;1.80;;;;;;;18.68;42.04;101509.50;144993;579;6002;-80
2021/09/23 04:23:14;;;;;;;3.62;1.80;;;;;;;18.43;42.22;101516.25;144991;607;6002;-80
2021/09/23 04:25:41;;;;;;;1.80;1.70;;;;;;;18.48;43.19;101526.81;144992;620;6002;-76
2021/09/23 04:28:08;;;;;;;3.05;1.80;;;;;;;18.56;42.18;101530.41;144992;575;6002;-78
2021/09/23 04:30:35;;;;;;;2.58;1.50;;;;;;;18.52;42.77;101536.53;144992;629;6002;-77
2021/09/23 04:33:01;;;;;;;2.80;1.60;;;;;;;18.51;40.35;101541.75;144992;607;6002;-79
2021/09/23 04:35:28;;;;;;;1.95;1.42;;;;;;;18.38;39.21;101544.25;144993;577;6002;-75
2021/09/23 04:37:54;;;;;;;4.03;1.55;;;;;;;18.51;40.51;101550.50;144993;588;6002;-77
2021/09/23 04:40:21;;;;;;;3.00;1.80;;;;;;;18.56;43.06;101558.47;144993;635;6002;-75
2021/09/23 04:42:47;;;;;;;2.30;1.90;;;;;;;18.81;43.50;101555.19;144993;625;6002;-76
2021/09/23 04:45:14;;;;;;;3.22;1.60;;;;;;;19.03;41.74;101558.06;144993;595;6002;-71
2021/09/23 04:47:40;;;;;;;4.18;1.40;;;;;;;19.24;42.82;101566.97;144993;608;6012;-77
2021/09/23 04:50:07;;;;;;;1.80;1.20;;;;;;;19.46;42.77;101566.25;144993;572;6002;-73
2021/09/23 04:52:34;;;;;;;1.65;1.30;;;;;;;19.64;43.18;101554.94;144993;626;6002;-74
2021/09/23 04:55:00;;;;;;;1.83;1.50;;;;;;;19.69;40.49;101563.78;144993;632;6002;-74
2021/09/23 04:57:27;;;;;;;3.58;2.00;;;;;;;19.80;42.50;101561.22;144993;608;6002;-78
2021/09/23 04:59:53;;;;;;;2.37;1.40;;;;;;;19.94;41.96;101554.25;144993;566;6002;-80
2021/09/23 05:02:20;;;;;;;3.67;1.65;;;;;;;20.10;42.51;101576.28;144993;600;6002;-78
2021/09/23 05:04:47;;;;;;;3.65;1.70;;;;;;;20.20;41.20;101565.78;144993;564;6002;-77
2021/09/23 05:07:13;;;;;;;3.53;1.70;;;;;;;20.06;41.43;101579.78;144993;610;6002;-78
2021/09/23 05:09:40;;;;;;;2.95;1.30;;;;;;;20.12;42.82;101577.19;144993;627;6002;-78
2021/09/23 05:12:06;;;;;;;5.55;1.55;;;;;;;20.23;42.16;101566.66;144993;636;6002;-79
2021/09/23 05:14:32;;;;;;;1.80;1.50;;;;;;;20.10;42.58;101576.28;144993;639;6002;-79
2021/09/23 05:17:00;;;;;;;1.70;1.60;;;;;;;20.04;41.70;101576.25;144993;589;6002;-79
2021/09/23 05:19:26;;;;;;;2.33;1.33;;;;;;;19.97;40.71;101584.16;144993;669;6002;-77
2021/09/23 05:21:53;;;;;;;4.70;1.45;;;;;;;20.14;43.23;101598.28;144993;569;6002;-78
2021/09/23 05:24:19;;;;;;;1.80;1.40;;;;;;;20.29;40.42;101586.91;144993;577;6002;-78
2021/09/23 05:26:46;;;;;;;2.65;1.50;;;;;;;20.13;40.56;101585.97;144993;580;6002;-78
2021/09/23 05:29:12;;;;;;;6.75;1.60;;;;;;;20.12;42.97;101600.91;144994;621;5002;-77
2021/09/23 05:31:39;;;;;;;3.87;1.62;;;;;;;20.11;41.44;101599.13;144994;673;5002;-79
2021/09/23 05:34:05;;;;;;;3.05;1.65;;;;;;;19.84;40.58;101612.19;144994;682;5002;-79
2021/09/23 05:36:32;;;;;;;3.00;1.58;;;;;;;19.79;42.71;101612.16;144994;636;5002;-80
2021/09/23 05:38:59;;;;;;;3.15;1.55;;;;;;;19.64;41.42;101614.66;144994;584;5002;-80
2021/09/23 05:41:26;;;;;;;2.00;1.20;;;;;;;19.37;40.18;101606.56;144994;582;5002;-78
2021/09/23 05:43:53;;;;;;;2.37;1.37;;;;;;;19.37;41.66;101610.94;144994;633;5002;-78
2021/09/23 05:46:19;;;;;;;3.03;2.15;;;;;;;19.40;42.42;101618.88;144994;598;5002;-78
2021/09/23 05:48:46;;;;;;;7.05;4.57;;;;;;;19.57;42.74;101619.87;144994;619;5002;-78
2021/09/23 05:51:12;;;;;;;7.47;6.43;;;;;;;19.90;42.02;101617.47;144994;630;5002;-77
2021/09/23 05:53:39;;;;;;;11.02;8.23;;;;;;;20.23;41.88;101618.50;144994;595;5002;-78
2021/09/23 05:56:05;;;;;;;3.08;2.00;;;;;;;20.12;42.27;101618.44;144994;565;5002;-76
2021/09/23 05:58:32;;;;;;;18.65;8.52;;;;;;;20.35;42.67;101625.59;144994;646;5002;-79
2021/09/23 06:00:58;;;;;;;6.18;3.47;;;;;;;20.23;41.23;101610.59;144994;575;5002;-76
2021/09/23 06:03:25;;;;;;;4.43;2.40;;;;;;;20.08;41.84;101621.97;144994;580;5002;-79
2021/09/23 06:05:51;;;;;;;4.15;1.60;;;;;;;20.17;41.56;101621.09;144994;621;5002;-78
2021/09/23 06:08:18;;;;;;;8.32;4.10;;;;;;;20.13;42.36;101628.12;144993;678;5002;-79
2021/09/23 06:10:44;;;;;;;3.92;2.30;;;;;;;20.27;42.02;101629.06;144994;628;5002;-78
2021/09/23 06:13:11;;;;;;;7.37;3.53;;;;;;;20.60;42.16;101650.28;144994;640;5002;-78
2021/09/23 06:15:37;;;;;;;1.90;1.70;;;;;;;20.53;40.59;101653.78;144994;682;5003;-79
2021/09/23 06:18:04;;;;;;;3.05;2.00;;;;;;;20.28;40.95;101645.75;144994;632;5002;-78
2021/09/23 06:20:30;;;;;;;3.62;1.55;;;;;;;20.21;42.04;101657.16;144994;589;5002;-76
2021/09/23 06:22:57;;;;;;;4.78;1.77;;;;;;;20.30;40.27;101652.81;144993;598;5002;-78
2021/09/23 06:25:24;;;;;;;1.62;1.52;;;;;;;20.19;41.48;101662.44;144994;583;5002;-79
2021/09/23 06:27:51;;;;;;;4.65;2.30;;;;;;;20.30;42.44;101666.00;144994;653;5002;-77
2021/09/23 06:30:17;;;;;;;3.05;1.87;;;;;;;20.33;41.42;101674.78;144994;591;5002;-78
2021/09/23 06:32:44;;;;;;;3.20;2.20;;;;;;;20.38;41.63;101671.31;144994;564;5002;-80
2021/09/23 06:35:11;;;;;;;2.65;1.90;;;;;;;20.47;41.34;101675.72;144994;622;5002;-78
2021/09/23 06:37:38;;;;;;;3.03;1.55;;;;;;;20.51;42.03;101674.00;144994;567;5002;-80
2021/09/23 06:40:07;;;;;;;2.87;1.90;;;;;;;20.51;40.90;101680.16;144994;569;5002;-82
2021/09/23 06:42:33;;;;;;;1.60;1.50;;;;;;;20.57;40.28;101672.25;144994;569;5002;-81
2021/09/23 06:45:00;;;;;;;3.37;1.87;;;;;;;20.61;40.96;101668.75;144994;602;5002;-80
2021/09/23 06:47:26;;;;;;;5.07;2.70;;;;;;;20.74;41.45;101671.47;144994;566;5002;-79
2021/09/23 06:49:52;;;;;;;5.05;2.90;;;;;;;21.01;40.33;101678.56;144994;582;5002;-80
2021/09/23 06:52:19;;;;;;;4.97;1.83;;;;;;;21.34;41.00;101693.56;144994;567;5002;-80
2021/09/23 06:54:46;;;;;;;2.28;1.52;;;;;;;21.53;39.72;101689.19;144994;569;5002;-80
2021/09/23 06:57:13;;;;;;;2.47;2.00;;;;;;;21.74;40.91;101693.56;144994;589;5002;-80
2021/09/23 06:59:39;;;;;;;2.15;1.95;;;;;;;21.78;40.37;101688.28;144994;565;5002;-79
2021/09/23 07:02:06;;;;;;;2.12;1.87;;;;;;;21.77;40.16;101691.81;144994;581;5002;-80
2021/09/23 07:04:33;;;;;;;1.90;1.52;;;;;;;21.84;39.97;101686.53;144994;573;5002;-80
2021/09/23 07:06:59;;;;;;;2.08;1.60;;;;;;;22.01;39.91;101696.19;144994;608;5002;-81
2021/09/23 07:09:26;;;;;;;2.80;1.37;;;;;;;22.08;40.28;101695.31;144994;565;5002;-77
2021/09/23 07:11:52;;;;;;;1.58;1.48;;;;;;;22.02;37.73;101697.97;144994;569;5002;-79
2021/09/23 07:14:18;;;;;;;2.15;1.70;;;;;;;21.64;37.74;101701.53;144994;624;5002;-79
2021/09/23 07:16:45;;;;;;;2.95;1.60;;;;;;;21.45;38.16;101704.13;144994;606;5002;-79
2021/09/23 07:19:11;;;;;;;4.05;1.55;;;;;;;21.40;38.58;101702.38;144994;585;5002;-76
2021/09/23 07:21:38;;;;;;;2.20;1.80;;;;;;;21.45;37.52;101705.91;144994;586;5002;-77
2021/09/23 07:24:05;;;;;;;1.73;1.23;;;;;;;21.57;38.68;101711.22;144994;569;5002;-77
2021/09/23 07:26:32;;;;;;;1.95;1.30;;;;;;;21.73;37.57;101707.69;144994;622;5002;-80
2021/09/23 07:29:01;;;;;;;4.25;1.60;;;;;;;21.71;38.80;101725.31;144994;628;5002;-78
2021/09/23 07:31:27;;;;;;;2.03;1.40;;;;;;;21.70;39.29;101727.97;144994;583;5002;-78
2021/09/23 07:33:54;;;;;;;4.20;1.50;;;;;;;21.91;39.09;101716.47;144994;565;5002;-79
2021/09/23 07:36:20;;;;;;;2.92;1.83;;;;;;;22.14;37.64;101716.41;144994;560;5002;-79
2021/09/23 07:38:47;;;;;;;2.55;1.42;;;;;;;22.33;38.86;101717.28;144993;627;5002;-79
2021/09/23 07:41:14;;;;;;;2.60;1.33;;;;;;;22.42;37.63;101722.53;144994;593;5002;-87
2021/09/23 07:43:40;;;;;;;4.40;1.40;;;;;;;22.60;37.00;101733.94;144994;564;5002;-86
2021/09/23 07:46:07;;;;;;;1.77;1.25;;;;;;;22.81;36.90;101731.22;144994;633;5002;-82
2021/09/23 07:48:33;;;;;;;1.85;1.65;;;;;;;22.97;37.80;101732.00;144994;586;5002;-82
2021/09/23 07:51:00;;;;;;;3.87;1.48;;;;;;;23.10;36.05;101731.97;144994;577;5002;-81
2021/09/23 07:53:28;;;;;;;5.50;1.02;;;;;;;22.84;34.67;101725.00;144994;577;5002;-81
2021/09/23 07:55:54;;;;;;;3.42;1.60;;;;;;;22.74;35.97;101718.00;144994;618;5002;-80
2021/09/23 07:58:21;;;;;;;1.40;1.30;;;;;;;22.73;35.54;101718.88;144994;667;5002;-79
2021/09/23 08:00:47;;;;;;;1.65;1.45;;;;;;;22.57;35.32;101731.31;144994;572;5002;-78
2021/09/23 08:03:14;;;;;;;2.10;1.25;;;;;;;22.38;35.70;101735.78;144994;574;5002;-80
2021/09/23 08:05:40;;;;;;;2.42;1.70;;;;;;;22.32;36.09;101733.16;144994;628;5002;-78
2021/09/23 08:08:09;;;;;;;1.73;1.48;;;;;;;22.31;37.32;101734.06;144994;594;5002;-81
2021/09/23 08:10:36;;;;;;;1.55;1.42;;;;;;;22.26;35.36;101737.53;144994;585;5002;-79
2021/09/23 08:13:03;;;;;;;2.03;1.60;;;;;;;22.22;35.98;101732.25;144994;640;5002;-80
2021/09/23 08:15:30;;;;;;;2.10;1.40;;;;;;;22.26;36.09;101739.31;144994;612;5002;-80
2021/09/23 08:17:57;;;;;;;1.70;1.20;;;;;;;22.34;35.78;101732.28;144994;640;5002;-80
2021/09/23 08:20:24;;;;;;;3.12;1.48;;;;;;;22.26;35.98;101729.63;144994;682;5002;-80
2021/09/23 08:22:50;;;;;;;4.07;1.30;;;;;;;22.07;36.29;101739.34;144994;588;5002;-78
2021/09/23 08:25:17;;;;;;;2.45;1.60;;;;;;;22.11;36.59;101734.94;144994;572;5002;-80
2021/09/23 08:27:43;;;;;;;1.73;1.12;;;;;;;22.34;36.17;101742.84;144994;598;5002;-81
2021/09/23 08:30:10;;;;;;;1.30;1.20;;;;;;;22.55;37.22;101735.72;144994;571;5002;-77
2021/09/23 08:32:37;;;;;;;2.15;1.30;;;;;;;22.58;35.38;101718.06;144994;594;5002;-79
2021/09/23 08:35:06;;;;;;;1.73;1.40;;;;;;;22.68;35.23;101723.31;144994;579;5002;-79
2021/09/23 08:37:33;;;;;;;1.52;1.40;;;;;;;22.76;35.62;101719.75;144994;576;5002;-79
2021/09/23 08:40:01;;;;;;;2.47;1.62;;;;;;;22.75;36.87;101723.28;144994;582;5002;-78
2021/09/23 08:42:29;;;;;;;2.55;1.40;;;;;;;23.09;37.27;101719.59;144994;576;5002;-78
2021/09/23 08:44:56;;;;;;;2.10;1.65;;;;;;;23.26;35.28;101714.22;144994;587;5002;-79
2021/09/23 08:47:23;;;;;;;2.20;1.87;;;;;;;23.24;35.48;101721.25;144994;592;5002;-78
2021/09/23 08:49:50;;;;;;;2.08;1.87;;;;;;;23.21;35.78;101722.19;144994;618;5002;-80
2021/09/23 08:52:16;;;;;;;2.15;1.30;;;;;;;23.09;35.09;101727.56;144994;591;5002;-79
2021/09/23 08:54:43;;;;;;;2.87;2.20;;;;;;;23.23;35.71;101719.53;144994;597;5002;-78
2021/09/23 08:57:09;;;;;;;2.62;1.87;;;;;;;23.40;35.61;101728.22;144994;575;5002;-79
2021/09/23 08:59:36;;;;;;;2.30;2.00;;;;;;;23.65;36.60;101720.94;144994;596;5002;-80
2021/09/23 09:02:04;;;;;;;2.50;1.70;;;;;;;23.59;33.84;101714.81;144994;574;5002;-79
2021/09/23 09:04:32;;;;;;;2.60;1.58;;;;;;;23.51;34.97;101721.06;144994;686;5002;-79
2021/09/23 09:07:01;;;;;;;2.78;1.50;;;;;;;23.63;34.92;101724.50;144994;570;5002;-82
2021/09/23 09:09:28;;;;;;;2.17;1.40;;;;;;;23.57;34.58;101728.06;144994;581;5002;-83
2021/09/23 09:11:56;;;;;;;3.17;1.50;;;;;;;23.63;34.53;101729.81;144994;590;5002;-84
2021/09/23 09:14:30;;;;;;;1.52;1.35;;;;;;;23.57;35.14;101729.84;144994;573;5002;-82
2021/09/23 09:17:07;;;;;;;1.50;1.40;;;;;;;23.63;35.80;101729.81;144994;585;5002;-87
2021/09/23 09:20:03;;;;;;;1.40;1.30;;;;;;;23.70;35.79;101736.81;144994;577;5002;-85
2021/09/23 09:22:32;;;;;;;2.50;1.42;;;;;;;23.84;35.65;101732.28;144994;574;5004;-86
2021/09/23 09:25:10;;;;;;;1.58;1.48;;;;;;;24.03;35.80;101735.63;144994;566;5004;-86
2021/09/23 09:27:50;;;;;;;1.65;1.35;;;;;;;24.06;35.88;101732.94;144994;600;5004;-83
2021/09/23 09:30:22;;;;;;;2.10;1.60;;;;;;;23.98;33.47;101726.00;144994;591;5004;-85
2021/09/23 09:32:57;;;;;;;5.20;1.58;;;;;;;23.91;33.30;101727.81;144994;591;5004;-84
2021/09/23 09:35:30;;;;;;;1.65;1.55;;;;;;;24.04;33.77;101725.94;144994;571;5004;-86
2021/09/23 09:37:59;;;;;;;1.42;1.33;;;;;;;24.20;34.75;101722.22;144994;593;5004;-87
2021/09/23 09:40:38;;;;;;;1.92;1.60;;;;;;;24.07;33.64;101720.59;144994;567;5004;-85
2021/09/23 09:43:13;;;;;;;2.10;1.58;;;;;;;24.01;33.29;101720.66;144994;563;5004;-83
2021/09/23 09:45:40;;;;;;;3.03;1.58;;;;;;;24.04;33.25;101713.53;144994;597;5004;-85
2021/09/23 09:48:07;;;;;;;1.30;1.20;;;;;;;24.07;33.71;101715.28;144994;575;5004;-80
2021/09/23 09:50:36;;;;;;;1.75;1.50;;;;;;;24.14;33.90;101718.75;144994;605;5004;-77
2021/09/23 09:53:07;;;;;;;1.92;1.20;;;;;;;24.29;34.65;101712.38;144994;582;5004;-81
2021/09/23 09:55:43;;;;;;;1.40;1.15;;;;;;;24.33;33.46;101716.78;144994;599;5004;-80
2021/09/23 09:58:10;;;;;;;1.70;1.20;;;;;;;24.41;32.61;101705.16;144994;675;5004;-79
2021/09/23 10:00:38;;;;;;;1.27;1.17;;;;;;;24.56;34.15;101704.13;144994;573;5004;-80
2021/09/23 10:03:05;;;;;;;1.30;1.20;;;;;;;24.63;34.44;101713.75;144994;598;5004;-80
2021/09/23 10:05:31;;;;;;;1.30;1.10;;;;;;;24.58;34.39;101709.41;144994;667;4568;-79
2021/09/23 10:07:59;;;;;;;1.50;1.12;;;;;;;24.50;33.04;101709.47;144994;578;4574;-75
2021/09/23 10:10:31;;;;;;;1.10;1.00;;;;;;;24.65;33.99;101712.88;144992;600;6004;-77
2021/09/23 10:13:01;;;;;;;1.60;1.00;;;;;;;24.51;32.33;101700.59;144992;567;6004;-75
2021/09/23 10:15:29;;;;;;;2.37;1.30;;;;;;;24.45;31.29;101711.31;144992;637;6004;-75
2021/09/23 10:17:59;;;;;;;1.23;0.93;;;;;;;24.55;34.44;101712.06;144992;609;6004;-75
2021/09/23 10:20:28;;;;;;;2.15;1.87;;;;;;;24.66;33.09;101701.34;144991;593;6000;-75
2021/09/23 10:22:56;;;;;;;1.55;1.45;;;;;;;24.78;32.33;101704.72;144992;569;6002;-75
2021/09/23 10:25:30;;;;;;;1.45;1.35;;;;;;;24.72;30.47;101699.50;144992;607;6002;-76
2021/09/23 10:27:58;;;;;;;;;;;;;;;24.83;31.05;101701.97;144997;914;6002;-75
2021/09/23 10:30:32;;;;;;;1.08;0.80;;;;;;;24.70;30.01;101703.06;144997;594;6002;-75
2021/09/23 10:32:59;;;;;;;2.78;1.10;;;;;;;24.48;31.28;101703.28;144992;574;6002;-76
2021/09/23 10:35:27;;;;;;;1.27;1.10;;;;;;;24.32;32.18;101699.09;144992;595;6002;-75
2021/09/23 10:37:59;;;;;;;1.30;1.20;;;;;;;24.31;31.44;101689.34;144992;628;6002;-75
2021/09/23 10:40:26;;;;;;;1.17;1.08;;;;;;;24.15;30.40;101691.31;144992;570;6002;-74
2021/09/23 10:42:56;;;;;;;1.10;1.00;;;;;;;24.22;30.20;101690.34;144992;565;6002;-74
2021/09/23 10:45:27;;;;;;;1.10;1.00;;;;;;;24.23;30.55;101706.25;144992;569;6002;-75
2021/09/23 10:48:02;;;;;;;1.20;0.85;;;;;;;24.15;29.97;101700.16;144992;571;6002;-75
2021/09/23 10:50:35;;;;;;;1.67;1.00;;;;;;;24.18;30.27;101689.53;144992;566;6002;-77
2021/09/23 10:53:05;;;;;;;0.73;0.68;;;;;;;24.24;30.28;101691.22;144992;659;6002;-75
2021/09/23 10:55:35;;;;;;;1.70;0.80;;;;;;;24.34;30.99;101691.97;144992;766;6002;-75
2021/09/23 10:58:03;;;;;;;1.30;0.98;;;;;;;24.51;32.39;101689.12;144992;569;6002;-76
2021/09/23 11:00:32;;;;;;;1.85;0.80;;;;;;;24.51;29.03;101692.62;144992;576;6002;-72
2021/09/23 11:03:05;;;;;;;1.25;1.05;;;;;;;24.52;30.27;101697.06;144992;589;6002;-73
2021/09/23 11:05:31;;;;;;;1.00;0.80;;;;;;;24.45;30.72;101701.56;144992;599;6002;-73
2021/09/23 11:08:05;;;;;;;2.25;0.77;;;;;;;24.45;28.45;101690.97;144992;569;6002;-75
2021/09/23 11:10:31;;;;;;;1.15;1.05;;;;;;;24.44;31.53;101699.81;144992;657;6002;-77
2021/09/23 11:12:59;;;;;;;0.62;0.60;;;;;;;24.51;28.80;101707.69;144992;631;6002;-77
2021/09/23 11:15:30;;;;;;;1.33;0.68;;;;;;;24.44;29.45;101698.94;144992;606;6002;-74
2021/09/23 11:17:59;;;;;;;0.68;0.68;;;;;;;24.38;29.65;101699.00;144992;585;6002;-75
2021/09/23 11:20:31;;;;;;;0.68;0.68;;;;;;;24.41;30.83;101691.00;144992;563;6002;-76
2021/09/23 11:23:04;;;;;;;1.60;0.80;;;;;;;24.43;29.58;101684.81;144992;571;6002;-79
2021/09/23 11:25:34;;;;;;;1.98;0.80;;;;;;;24.44;28.72;101688.31;144992;600;6002;-76
2021/09/23 11:28:02;;;;;;;2.33;0.90;;;;;;;24.50;30.66;101690.91;144992;590;6002;-75
2021/09/23 11:30:32;;;;;;;4.05;1.17;;;;;;;24.65;31.20;101691.63;144992;600;6002;-72
2021/09/23 11:33:04;;;;;;;1.10;0.90;;;;;;;24.80;30.52;101688.75;144992;607;6002;-72
2021/09/23 11:35:38;;;;;;;1.58;0.90;;;;;;;24.71;29.40;101686.25;144992;577;6002;-77